Flight Track Log - Related Links

Times and Time Zones

All times are in EDT time to prevent confusion due to time zone crossing. See the SWA862 flight status page for this flight to view local times or setup timezone preferences in your user account.

Time Position Orientation Groundspeed Altitude Reporting Facility
EDT Latitude Longitude Course Direction KTS MPH feet Rate Location/Type
Sat 06:56:31 PM 29.6308 -95.2633 36° Northeast 139 160 1,000  Level Houston Center
Sat 06:57:32 PM 29.6639 -95.2353 36° Northeast 222 255 3,200 1,739 Climbing Houston Center
Sat 06:57:40 PM 29.6644 -95.2353 360° North 220 253 3,000 1,742 Descending Houston Center
Sat 06:58:34 PM 29.7236 -95.2664 335° Northwest 240 276 5,000 1,935 Climbing Houston Center
Sat 06:58:42 PM 29.7214 -95.2622 122° Southeast 231 266 5,000 2,609 Level Houston Center
Sat 06:59:43 PM 29.7994 -95.3208 327° Northwest 275 316 8,000 3,220 Climbing Houston Center
Sat 07:00:45 PM 29.8786 -95.3436 346° North 294 338 11,600 3,073 Climbing Houston Center
Sat 07:01:46 PM 29.9658 -95.3100 18° North 341 392 14,300 2,951 Climbing Houston Center
Sat 07:02:47 PM 30.0586 -95.2631 24° Northeast 360 414 17,600 3,073 Climbing Houston Center
Sat 07:03:49 PM 30.1506 -95.2003 31° Northeast 382 440 20,600 2,683 Climbing Houston Center
Sat 07:04:50 PM 30.2456 -95.1278 33° Northeast 403 464 23,100 2,459 Climbing Houston Center
Sat 07:05:51 PM 30.3447 -95.0522 33° Northeast 422 486 25,600 2,390 Climbing Houston Center
Sat 07:06:53 PM 30.4625 -94.9628 33° Northeast 441 507 28,000 2,098 Climbing Houston Center
Sat 07:07:54 PM 30.5692 -94.8806 34° Northeast 456 525 29,900 1,756 Climbing Houston Center
Sat 07:08:56 PM 30.6786 -94.7967 33° Northeast 469 540 31,600 1,902 Climbing Houston Center
Sat 07:09:57 PM 30.7894 -94.7108 34° Northeast 478 550 33,800 1,902 Climbing Houston Center
Sat 07:10:59 PM 30.8975 -94.6267 34° Northeast 472 543 35,500 1,659 Climbing Houston Center
Sat 07:12:00 PM 31.0058 -94.5425 34° Northeast 473 544 37,200 1,659 Climbing Houston Center
Sat 07:13:02 PM 31.1122 -94.4600 34° Northeast 467 537 38,900 878 Climbing Houston Center
Sat 07:14:03 PM 31.2383 -94.3608 34° Northeast 462 532 39,000 49 Climbing Houston Center
Sat 07:15:05 PM 31.3453 -94.2792 33° Northeast 461 531 39,000  Level Houston Center
Sat 07:16:06 PM 31.4514 -94.1944 34° Northeast 463 533 39,000  Level Houston Center
Sat 07:17:08 PM 31.5569 -94.1122 34° Northeast 459 528 39,000  Level Houston Center
Sat 07:18:09 PM 31.6614 -94.0294 34° Northeast 456 525 39,000  Level Houston Center
Sat 07:19:10 PM 31.7675 -93.9453 34° Northeast 458 527 39,000  Level Houston Center
Sat 07:20:12 PM 31.8811 -93.8550 34° Northeast 458 527 39,000  Level Houston Center
Sat 07:21:13 PM 31.9661 -93.7356 50° Northeast 478 550 39,000  Level Houston Center
Sat 07:22:15 PM 32.0414 -93.6033 56° Northeast 485 558 39,000  Level Houston Center
Sat 07:23:16 PM 32.1164 -93.4708 56° Northeast 484 557 39,000  Level Houston Center
Sat 07:24:09 PM 32.1947 -93.3328 56° Northeast 490 564 39,000  Level Fort Worth Center
Sat 07:25:11 PM 32.2700 -93.2000 56° Northeast 487 560 39,000  Level Fort Worth Center
Sat 07:26:12 PM 32.3453 -93.0644 57° Northeast 496 571 39,000  Level Fort Worth Center
Sat 07:27:13 PM 32.4222 -92.9272 56° Northeast 499 574 39,000  Level Fort Worth Center
Sat 07:28:14 PM 32.4942 -92.7956 57° Northeast 485 558 39,000  Level Fort Worth Center
Sat 07:29:16 PM 32.5700 -92.6586 57° Northeast 493 567 39,000  Level Fort Worth Center
Sat 07:30:17 PM 32.6450 -92.5247 56° Northeast 491 565 39,000  Level Fort Worth Center
Sat 07:31:18 PM 32.7211 -92.3892 56° Northeast 493 567 39,000  Level Fort Worth Center
Sat 07:32:20 PM 32.7953 -92.2533 57° Northeast 494 568 39,000  Level Fort Worth Center
Sat 07:33:21 PM 32.8839 -92.0917 57° Northeast 489 563 39,000  Level Fort Worth Center
Sat 07:34:22 PM 32.9572 -91.9583 57° Northeast 485 558 39,000  Level Fort Worth Center
Sat 07:35:23 PM 33.0303 -91.8233 57° Northeast 485 558 39,000  Level Fort Worth Center
Sat 07:36:25 PM 33.1058 -91.6867 57° Northeast 485 558 39,000  Level Fort Worth Center
Sat 07:37:26 PM 33.1767 -91.5536 58° Northeast 486 559 39,000  Level Fort Worth Center
Sat 07:38:27 PM 33.2503 -91.4167 57° Northeast 481 554 39,000  Level Fort Worth Center
Sat 07:39:34 PM 33.3303 -91.2697 57° Northeast 480 552 39,000  Level Memphis Center
Sat 07:40:34 PM 33.4044 -91.1361 56° Northeast 473 544 39,000  Level Memphis Center
Sat 07:41:34 PM 33.4739 -91.0022 58° Northeast 478 550 39,000  Level Memphis Center
Sat 07:42:34 PM 33.5414 -90.8731 58° Northeast 473 544 39,000  Level Memphis Center
Sat 07:43:34 PM 33.6128 -90.7414 57° Northeast 473 544 39,000  Level Memphis Center
Sat 07:44:34 PM 33.6819 -90.6119 57° Northeast 468 539 39,000  Level Memphis Center
Sat 07:45:34 PM 33.7489 -90.4797 59° Northeast 468 539 39,000  Level Memphis Center
Sat 07:46:34 PM 33.8242 -90.3347 58° Northeast 468 539 39,000  Level Memphis Center
Sat 07:47:34 PM 33.8931 -90.1994 58° Northeast 468 539 39,000  Level Memphis Center
Sat 07:48:34 PM 33.9617 -90.0667 58° Northeast 468 539 39,000  Level Memphis Center
Sat 07:49:34 PM 34.0322 -89.9311 58° Northeast 468 539 39,000  Level Memphis Center
Sat 07:50:34 PM 34.1006 -89.7978 58° Northeast 473 544 39,000  Level Memphis Center
Sat 07:51:34 PM 34.1708 -89.6617 58° Northeast 478 550 39,000  Level Memphis Center
Sat 07:52:34 PM 34.2408 -89.5231 59° Northeast 478 550 39,000  Level Memphis Center
Sat 07:53:34 PM 34.3025 -89.3992 59° Northeast 473 544 39,000  Level Memphis Center
Sat 07:54:34 PM 34.3744 -89.2625 57° Northeast 478 550 39,000  Level Memphis Center
Sat 07:55:34 PM 34.4442 -89.1231 59° Northeast 478 550 39,000  Level Memphis Center
Sat 07:56:34 PM 34.5156 -88.9833 58° Northeast 478 550 39,000  Level Memphis Center
Sat 07:57:34 PM 34.5850 -88.8461 58° Northeast 469 540 39,000  Level Memphis Center
Sat 07:58:34 PM 34.6542 -88.7058 59° Northeast 480 552 39,000  Level Memphis Center
Sat 07:59:34 PM 34.7231 -88.5656 59° Northeast 480 552 39,000  Level Memphis Center
Sat 08:00:34 PM 34.8003 -88.4225 57° Northeast 468 539 39,000  Level Memphis Center
Sat 08:01:34 PM 34.8689 -88.2817 59° Northeast 468 539 39,000  Level Memphis Center
Sat 08:02:34 PM 34.9314 -88.1483 60° Northeast 486 559 39,000  Level Memphis Center
Sat 08:03:34 PM 35.0078 -87.9992 58° Northeast 491 565 39,000  Level Memphis Center
Sat 08:04:34 PM 35.0739 -87.8603 60° Northeast 484 557 39,000  Level Memphis Center
Sat 08:05:34 PM 35.1422 -87.7264 58° Northeast 464 534 39,000  Level Memphis Center
Sat 08:06:34 PM 35.2078 -87.5869 60° Northeast 469 540 39,000  Level Memphis Center
Sat 08:07:34 PM 35.2756 -87.4475 59° Northeast 476 548 39,000  Level Memphis Center
Sat 08:08:34 PM 35.3411 -87.3078 60° Northeast 476 548 39,000  Level Memphis Center
Sat 08:09:34 PM 35.4067 -87.1728 59° Northeast 476 548 39,000  Level Memphis Center
Sat 08:10:34 PM 35.4717 -87.0303 61° Northeast 476 548 39,000  Level Memphis Center
Sat 08:11:34 PM 35.5408 -86.8922 58° Northeast 476 548 39,000  Level Memphis Center
Sat 08:12:34 PM 35.6056 -86.7492 61° Northeast 476 548 39,000  Level Memphis Center
Sat 08:13:34 PM 35.6744 -86.6056 59° Northeast 482 555 39,000  Level Memphis Center
Sat 08:14:34 PM 35.7408 -86.4617 60° Northeast 482 555 39,000  Level Memphis Center
Sat 08:15:34 PM 35.7994 -86.3361 60° Northeast 475 547 39,000  Level Memphis Center
Sat 08:16:34 PM 35.8656 -86.1947 60° Northeast 480 552 39,000  Level Memphis Center
Sat 08:17:34 PM 35.9336 -86.0475 60° Northeast 480 552 39,000  Level Memphis Center
Sat 08:18:34 PM 35.9972 -85.9058 61° Northeast 475 547 39,000  Level Memphis Center
Sat 08:19:34 PM 36.0689 -85.7528 60° Northeast 475 547 39,000  Level Memphis Center
Sat 08:21:28 PM 36.1897 -85.4908 60° Northeast 478 550 39,000  Level Indianapolis Center
Sat 08:22:29 PM 36.2547 -85.3475 61° Northeast 475 547 39,000  Level Indianapolis Center
Sat 08:23:30 PM 36.3200 -85.2036 61° Northeast 474 545 39,000  Level Indianapolis Center
Sat 08:24:31 PM 36.3856 -85.0575 61° Northeast 480 552 39,000  Level Indianapolis Center
Sat 08:25:31 PM 36.4494 -84.9122 61° Northeast 477 549 39,000  Level Indianapolis Center
Sat 08:26:32 PM 36.5144 -84.7656 61° Northeast 480 552 39,000  Level Indianapolis Center
Sat 08:27:33 PM 36.5794 -84.6183 61° Northeast 485 558 39,000  Level Indianapolis Center
Sat 08:28:34 PM 36.6433 -84.4767 61° Northeast 482 555 39,000  Level Indianapolis Center
Sat 08:29:34 PM 36.7072 -84.3289 62° Northeast 484 557 39,000  Level Indianapolis Center
Sat 08:30:35 PM 36.7822 -84.1567 61° Northeast 485 558 39,000  Level Indianapolis Center
Sat 08:31:36 PM 36.8469 -84.0103 61° Northeast 483 556 39,000  Level Indianapolis Center
Sat 08:32:37 PM 36.9117 -83.8625 61° Northeast 487 560 39,000  Level Indianapolis Center
Sat 08:33:37 PM 36.9772 -83.7139 61° Northeast 486 559 39,000  Level Indianapolis Center
Sat 08:34:38 PM 37.0394 -83.5661 62° Northeast 480 552 39,000  Level Indianapolis Center
Sat 08:35:39 PM 37.1033 -83.4175 62° Northeast 481 554 39,000  Level Indianapolis Center
Sat 08:36:40 PM 37.1672 -83.2678 62° Northeast 482 555 39,000  Level Indianapolis Center
Sat 08:37:40 PM 37.2311 -83.1181 62° Northeast 483 556 39,000  Level Indianapolis Center
Sat 08:38:41 PM 37.2950 -82.9664 62° Northeast 484 557 39,000  Level Indianapolis Center
Sat 08:39:42 PM 37.3578 -82.8139 63° Northeast 487 560 39,000  Level Indianapolis Center
Sat 08:40:43 PM 37.4228 -82.6608 62° Northeast 490 564 39,000  Level Indianapolis Center
Sat 08:41:43 PM 37.4864 -82.5081 62° Northeast 490 564 39,000  Level Indianapolis Center
Sat 08:42:44 PM 37.5511 -82.3544 62° Northeast 492 566 39,000  Level Indianapolis Center
Sat 08:43:45 PM 37.6142 -82.1992 63° Northeast 496 571 39,000  Level Indianapolis Center
Sat 08:44:46 PM 37.6783 -82.0469 62° Northeast 491 565 39,000  Level Indianapolis Center
Sat 08:45:47 PM 37.7408 -81.8917 63° Northeast 493 567 39,000  Level Indianapolis Center
Sat 08:46:47 PM 37.8031 -81.7350 63° Northeast 497 572 39,000  Level Indianapolis Center
Sat 08:47:48 PM 37.8703 -81.5722 62° Northeast 496 571 39,000  Level Indianapolis Center
Sat 08:48:49 PM 37.9319 -81.4178 63° Northeast 493 567 39,000  Level Indianapolis Center
Sat 08:49:50 PM 37.9933 -81.2628 63° Northeast 493 567 39,000  Level Indianapolis Center
Sat 08:50:51 PM 38.0547 -81.1075 63° Northeast 494 568 39,000  Level Indianapolis Center
Sat 08:51:51 PM 38.1153 -80.9525 64° Northeast 494 568 39,000  Level Indianapolis Center
Sat 08:52:52 PM 38.1767 -80.7961 63° Northeast 496 571 39,000  Level Indianapolis Center
Sat 08:53:53 PM 38.2389 -80.6394 63° Northeast 498 573 39,000  Level Indianapolis Center
Sat 08:54:38 PM 38.2889 -80.5203 62° Northeast 495 570 39,000  Level Washington Center
Sat 08:55:38 PM 38.3497 -80.3600 64° Northeast 495 570 39,000  Level Washington Center
Sat 08:56:39 PM 38.4122 -80.2025 63° Northeast 495 570 39,000  Level Washington Center
Sat 08:57:37 PM 38.4744 -80.0419 64° Northeast 500 575 39,000  Level Washington Center
Sat 08:58:37 PM 38.5297 -79.8992 64° Northeast 500 575 39,000  Level Washington Center
Sat 08:59:38 PM 38.5917 -79.7381 64° Northeast 500 575 39,000  Level Washington Center
Sat 09:00:39 PM 38.6514 -79.5767 65° Northeast 500 575 39,000  Level Washington Center
Sat 09:01:36 PM 38.7131 -79.4122 64° Northeast 500 575 39,000  Level Washington Center
Sat 09:02:37 PM 38.7742 -79.2558 63° Northeast 500 575 39,000  Level Washington Center
Sat 09:03:37 PM 38.8314 -79.0881 66° East 500 575 39,000  Level Washington Center
Sat 09:04:39 PM 38.8922 -78.9256 64° Northeast 500 575 39,000  Level Washington Center
Sat 09:05:38 PM 38.9489 -78.7625 66° East 500 575 39,000  Level Washington Center
Sat 09:06:39 PM 39.0092 -78.6022 64° Northeast 500 575 39,000  Level Washington Center
Sat 09:07:37 PM 39.0675 -78.4361 66° East 500 575 39,000  Level Washington Center
Sat 09:08:37 PM 39.1342 -78.2569 64° Northeast 500 575 39,000  Level Washington Center
Sat 09:10:34 PM 39.2517 -77.9303 65° Northeast 493 567 39,000  Level New York Center
Sat 09:11:34 PM 39.3117 -77.7647 65° Northeast 498 573 39,000  Level New York Center
Sat 09:12:34 PM 39.3594 -77.6294 65° Northeast 508 585 39,000  Level New York Center
Sat 09:13:34 PM 39.4239 -77.4475 65° Northeast 508 585 39,000  Level New York Center
Sat 09:14:33 PM 39.4836 -77.2783 65° Northeast 508 585 39,000  Level New York Center
Sat 09:15:34 PM 39.5383 -77.1136 67° East 508 585 39,000  Level New York Center
Sat 09:16:34 PM 39.5972 -76.9464 65° Northeast 508 585 39,000  Level New York Center
Sat 09:17:34 PM 39.6561 -76.7764 66° East 508 585 39,000  Level New York Center
Sat 09:18:34 PM 39.7147 -76.6086 66° East 508 585 39,000  Level New York Center
Sat 09:19:33 PM 39.7708 -76.4431 66° East 508 585 39,000  Level New York Center
Sat 09:20:34 PM 39.8286 -76.2747 66° East 508 585 39,000  Level New York Center
Sat 09:21:33 PM 39.8958 -76.0822 65° Northeast 514 592 39,000  Level New York Center
Sat 09:22:34 PM 39.9511 -75.9158 67° East 508 585 39,000  Level New York Center
Sat 09:23:33 PM 40.0042 -75.7492 67° East 503 579 39,000  Level New York Center
Sat 09:24:33 PM 40.0592 -75.5794 67° East 503 579 39,000  Level New York Center
Sat 09:25:34 PM 40.1161 -75.4097 66° East 508 585 39,000  Level New York Center
Sat 09:26:34 PM 40.1706 -75.2419 67° East 508 585 39,000  Level New York Center
Sat 09:27:34 PM 40.2247 -75.0742 67° East 508 585 39,000  Level New York Center
Sat 09:28:34 PM 40.2789 -74.9036 67° East 508 585 39,000  Level New York Center
Sat 09:29:34 PM 40.3303 -74.7350 68° East 503 579 39,000  Level New York Center
Sat 09:30:33 PM 40.3861 -74.5639 67° East 503 579 39,000 -450 Level New York Center
Sat 09:31:34 PM 40.4392 -74.3950 68° East 509 586 38,100 -850 Descending New York Center
Sat 09:32:33 PM 40.4831 -74.2608 67° East 504 580 37,300 -850 Descending New York Center
Sat 09:33:34 PM 40.5383 -74.0725 69° East 504 580 36,400 -942 Descending New York Center
Sat 09:34:34 PM 40.5931 -73.9003 67° East 504 580 35,400 -1,510 Descending New York Center
Sat 09:36:09 PM 40.7081 -73.6636 57° Northeast 511 588 32,500 -2,883 Descending Boston Center
Sat 09:37:08 PM 40.8167 -73.5075 47° Northeast 519 597 28,000 -2,705 Descending Boston Center
Sat 09:38:11 PM 40.9078 -73.3700 49° Northeast 499 574 27,000 -492 Descending Boston Center
Sat 09:39:10 PM 40.9903 -73.2481 48° Northeast 480 552 27,000  Level Boston Center
Sat 09:40:13 PM 41.0789 -73.1175 48° Northeast 479 551 27,000 -1,171 Level Boston Center
Sat 09:41:13 PM 41.1653 -72.9878 48° Northeast 472 543 24,600 -1,983 Descending Boston Center
Sat 09:42:14 PM 41.2422 -72.8517 53° Northeast 467 537 23,000 -787 Descending Boston Center
Sat 09:43:15 PM 41.3036 -72.6814 64° Northeast 459 528 23,000  Level Boston Center
Sat 09:44:15 PM 41.3597 -72.5272 64° Northeast 461 531 23,000 -198 Level Boston Center
Sat 09:45:16 PM 41.4150 -72.3742 64° Northeast 459 528 22,600 -694 Descending Boston Center
Sat 09:46:16 PM 41.4692 -72.2222 65° Northeast 455 524 21,600 -1,008 Descending Boston Center
Sat 09:47:15 PM 41.5231 -72.0703 65° Northeast 452 520 20,600 -992 Descending Boston Center
Sat 09:48:17 PM 41.5778 -71.9153 65° Northeast 447 514 19,600 -1,033 Descending Boston Center
Sat 09:49:17 PM 41.6353 -71.7567 64° Northeast 449 517 18,500 -976 Descending Boston Center
Sat 09:50:20 PM 41.6819 -71.6214 65° Northeast 435 501 17,600 -1,180 Descending Boston Center
Sat 09:51:19 PM 41.7364 -71.4675 65° Northeast 415 478 16,100 -1,815 Descending Boston Center
Sat 09:52:19 PM 41.7833 -71.3319 65° Northeast 405 466 14,000 -2,016 Descending Boston Center
Sat 09:53:21 PM 41.8286 -71.2022 65° Northeast 388 447 12,000 -1,475 Descending Boston Center
Sat 09:54:21 PM 41.8747 -71.0775 64° Northeast 374 430 11,000 -500 Descending Boston Center
Sat 09:55:21 PM 41.9231 -70.9614 61° Northeast 359 413 11,000  Level Boston Center
Sat 09:56:24 PM 41.9761 -70.8364 60° Northeast 359 413 11,000 -50 Level Boston Center
Sat 09:57:22 PM 42.0158 -70.7433 60° Northeast 357 411 10,900 -99 Descending Boston Center
Sat 09:58:25 PM 42.0706 -70.6153 60° Northeast 329 379 10,800 -829 Descending Boston Center
Sat 09:59:25 PM 42.1483 -70.5711 23° Northeast 308 354 9,200 -1,650 Descending Boston Center
Sat 10:00:25 PM 42.2181 -70.6208 332° Northwest 286 329 7,500 -1,721 Descending Boston Center
Sat 10:01:27 PM 42.2833 -70.6672 332° Northwest 273 314 5,700 -1,707 Descending Boston Center
Sat 10:02:28 PM 42.3489 -70.7097 334° Northwest 263 303 4,000 -1,627 Descending Boston Center
Sat 10:03:25 PM 42.4019 -70.7631 323° Northwest 259 298 2,500 -1,008 Descending Boston Center
Sat 10:04:27 PM 42.4397 -70.8317 307° West 236 272 2,000 -246 Descending Boston Center
Sat 10:05:27 PM 42.4567 -70.8872 292° West 155 178 2,000 -99 Level Boston Center
Sat 10:06:28 PM 42.4486 -70.9311 256° West 121 139 1,800 -298 Descending Boston Center
Sat 10:07:28 PM 42.4367 -70.9658 245° Southwest 104 120 1,400 -488 Descending Boston Center
Sat 10:08:31 PM 42.4083 -70.9844 206° Southwest 107 123 800 -541 Descending Boston Center
Sat 10:09:30 PM 42.3806 -70.9983 200° South 108 124 300 -508 Descending Boston Center

Login

Don't have an account? Register now (free) for customized features, flight alerts, and more!